Terminal Aerodrome Forecast
Issued by NWS Cleveland, OH

Home | Current Version | Previous Version | Text Only | Print | Product List | Glossary Off
Versions: 1 2 3 4 5 6 7 8 9 10 11 12 13 14

557
FTUS41 KCLE 101138
TAFTOL
TAF
KTOL 101138Z 1012/1112 26015G22KT P6SM SCT015 OVC045
      TEMPO 1013/1017 1 1/2SM -SHSN BKN015
     FM101700 28015G25KT P6SM VCSH SCT025 OVC035
     FM110400 28010KT P6SM BKN045=

USA.gov is the U.S. government's official web portal to all federal, state and local government web resources and services.